createdAt,value
2022-09-12T00:03:37.006Z,13.38
2022-09-12T00:07:13.491Z,13.30
2022-09-12T00:10:21.963Z,13.30
2022-09-12T00:13:29.757Z,13.30
2022-09-12T00:16:39.364Z,13.30
2022-09-12T00:19:47.104Z,13.20
2022-09-12T00:22:55.285Z,13.20
2022-09-12T00:26:05.794Z,13.20
2022-09-12T00:29:16.907Z,13.20
2022-09-12T00:32:33.675Z,13.10
2022-09-12T00:35:46.599Z,13.10
2022-09-12T00:38:55.783Z,13.10
2022-09-12T00:42:03.585Z,13.10
2022-09-12T00:45:33.645Z,13.10
2022-09-12T00:48:50.881Z,13.06
2022-09-12T00:52:10.259Z,13.00
2022-09-12T00:55:23.771Z,13.00
2022-09-12T00:58:41.902Z,13.00
2022-09-12T01:01:53.221Z,13.00
2022-09-12T01:05:03.025Z,13.00
2022-09-12T01:08:12.306Z,13.00
2022-09-12T01:11:22.317Z,13.00
2022-09-12T01:14:29.442Z,13.00
2022-09-12T01:18:01.995Z,13.00
2022-09-12T01:21:24.644Z,13.00
2022-09-12T01:25:01.519Z,13.00
2022-09-12T01:28:41.715Z,12.92
2022-09-12T01:32:05.104Z,12.90
2022-09-12T01:35:25.638Z,12.90
2022-09-12T01:38:41.192Z,12.90
2022-09-12T01:41:57.865Z,13.00
2022-09-12T01:45:15.012Z,13.00
2022-09-12T01:48:27.890Z,13.02
2022-09-12T01:51:46.058Z,13.10
2022-09-12T01:55:00.527Z,13.10
2022-09-12T01:58:14.592Z,13.10
2022-09-12T02:01:28.121Z,13.10
2022-09-12T02:05:26.340Z,13.10
2022-09-12T02:08:42.446Z,13.10
2022-09-12T02:11:55.606Z,13.10
2022-09-12T02:15:11.539Z,13.10
2022-09-12T02:18:21.933Z,13.10
2022-09-12T02:21:33.057Z,13.10
2022-09-12T02:24:47.878Z,13.08
2022-09-12T02:28:04.592Z,13.00
2022-09-12T02:31:23.056Z,12.90
2022-09-12T02:34:52.835Z,12.80
2022-09-12T02:38:04.552Z,12.80
2022-09-12T02:41:13.575Z,12.70
2022-09-12T02:44:21.945Z,12.70
2022-09-12T02:47:37.601Z,12.68
2022-09-12T02:50:46.500Z,12.60
2022-09-12T02:53:55.261Z,12.60
2022-09-12T02:57:03.496Z,12.60
2022-09-12T03:00:15.107Z,12.50
2022-09-12T03:03:55.681Z,12.50
2022-09-12T03:07:17.804Z,12.40
2022-09-12T03:10:35.305Z,12.40
2022-09-12T03:14:02.585Z,12.40
2022-09-12T03:17:24.893Z,12.30
2022-09-12T03:20:48.765Z,12.30
2022-09-12T03:24:14.192Z,12.30
2022-09-12T03:27:31.810Z,12.30
2022-09-12T03:30:45.619Z,12.30
2022-09-12T03:33:53.362Z,12.40
2022-09-12T03:37:01.702Z,12.40
2022-09-12T03:40:13.663Z,12.40
2022-09-12T03:43:21.999Z,12.40
2022-09-12T03:46:30.196Z,12.50
2022-09-12T03:49:38.101Z,12.50
2022-09-12T03:52:46.206Z,12.50
2022-09-12T03:55:54.249Z,12.54
2022-09-12T03:59:02.042Z,12.58
2022-09-12T04:02:12.901Z,12.60
2022-09-12T04:05:20.925Z,12.60
2022-09-12T04:08:28.999Z,12.60
2022-09-12T04:15:09.429Z,12.60
2022-09-12T04:18:17.374Z,12.60
2022-09-12T04:21:26.220Z,12.60
2022-09-12T04:24:34.442Z,12.60
2022-09-12T04:27:43.097Z,12.50
2022-09-12T04:30:51.527Z,12.50
2022-09-12T04:34:01.363Z,12.50
2022-09-12T04:37:07.936Z,12.50
2022-09-12T04:40:16.279Z,12.40
2022-09-12T04:43:24.237Z,12.40
2022-09-12T04:46:34.698Z,12.40
2022-09-12T04:49:42.901Z,12.34
2022-09-12T04:52:54.685Z,12.30
2022-09-12T04:56:10.600Z,12.30
2022-09-12T04:59:23.277Z,12.28
2022-09-12T05:02:31.652Z,12.30
2022-09-12T05:05:40.843Z,12.30
2022-09-12T05:08:49.765Z,12.28
2022-09-12T05:12:05.686Z,12.20
2022-09-12T05:15:15.563Z,12.20
2022-09-12T05:18:23.396Z,12.20
2022-09-12T05:21:31.893Z,12.20
2022-09-12T05:24:47.259Z,12.18
2022-09-12T05:27:58.683Z,12.20
2022-09-12T05:31:09.346Z,12.20
2022-09-12T05:34:17.109Z,12.20
2022-09-12T05:37:25.168Z,12.30
2022-09-12T05:40:34.591Z,12.30
2022-09-12T05:43:46.005Z,12.30
2022-09-12T05:46:53.877Z,12.36
2022-09-12T05:50:02.257Z,12.40
2022-09-12T05:53:10.177Z,12.40
2022-09-12T05:56:21.132Z,12.50
2022-09-12T05:59:28.886Z,12.54
2022-09-12T06:02:36.988Z,12.60
2022-09-12T06:05:48.797Z,12.70
2022-09-12T06:09:01.291Z,12.80
2022-09-12T06:12:09.930Z,12.90
2022-09-12T06:15:23.225Z,13.00
2022-09-12T06:18:32.739Z,13.10
2022-09-12T06:21:41.805Z,13.18
2022-09-12T06:24:51.340Z,13.20
2022-09-12T06:28:02.059Z,13.30
2022-09-12T06:31:13.111Z,13.40
2022-09-12T06:34:21.564Z,13.42
2022-09-12T06:37:30.016Z,13.52
2022-09-12T06:40:44.136Z,13.60
2022-09-12T06:43:52.157Z,13.68
2022-09-12T06:46:59.987Z,13.70
2022-09-12T06:50:09.806Z,13.80
2022-09-12T06:53:16.036Z,13.90
2022-09-12T06:56:26.549Z,14.00
2022-09-12T06:59:34.682Z,14.20
2022-09-12T07:02:42.603Z,14.34
2022-09-12T07:05:50.622Z,14.50
2022-09-12T07:09:01.088Z,14.60
2022-09-12T07:12:10.221Z,14.70
2022-09-12T07:15:18.992Z,14.80
2022-09-12T07:18:27.467Z,14.90
2022-09-12T07:21:39.671Z,15.20
2022-09-12T07:24:48.471Z,15.40
2022-09-12T07:27:57.110Z,15.50
2022-09-12T07:31:11.662Z,15.60
2022-09-12T07:34:19.444Z,15.70
2022-09-12T07:37:29.718Z,15.80
2022-09-12T07:40:37.673Z,15.84
2022-09-12T07:43:46.177Z,16.06
2022-09-12T07:46:53.939Z,16.30
2022-09-12T07:50:02.513Z,16.50
2022-09-12T07:53:11.716Z,16.70
2022-09-12T07:56:22.009Z,16.84
2022-09-12T07:59:51.573Z,17.00
2022-09-12T08:02:59.563Z,17.20
2022-09-12T08:06:15.612Z,17.30
2022-09-12T08:09:23.688Z,17.42
2022-09-12T08:12:32.457Z,17.54
2022-09-12T08:15:41.015Z,17.62
2022-09-12T08:18:50.185Z,17.74
2022-09-12T08:21:58.471Z,17.80
2022-09-12T08:25:07.286Z,17.96
2022-09-12T08:28:15.434Z,18.10
2022-09-12T08:31:26.854Z,18.10
2022-09-12T08:34:34.974Z,18.20
2022-09-12T08:37:43.229Z,18.20
2022-09-12T08:41:02.357Z,18.20
2022-09-12T08:44:44.414Z,18.40
2022-09-12T08:47:54.060Z,18.50
2022-09-12T08:51:05.275Z,18.50
2022-09-12T08:54:32.103Z,18.56
2022-09-12T08:57:40.082Z,18.72
2022-09-12T09:01:01.121Z,18.62
2022-09-12T09:04:30.590Z,18.58
2022-09-12T09:08:07.837Z,18.60
2022-09-12T09:11:35.115Z,18.60
2022-09-12T09:15:02.005Z,18.60
2022-09-12T09:18:22.780Z,18.60
2022-09-12T09:21:38.902Z,18.50
2022-09-12T09:24:52.825Z,18.40
2022-09-12T09:28:09.177Z,18.30
2022-09-12T09:31:21.177Z,18.40
2022-09-12T09:34:33.238Z,18.40
2022-09-12T09:37:49.527Z,18.50
2022-09-12T09:41:18.873Z,18.70
2022-09-12T09:44:29.846Z,18.70
2022-09-12T09:47:37.816Z,18.60
2022-09-12T09:50:49.209Z,18.50
2022-09-12T09:54:02.845Z,18.44
2022-09-12T09:57:48.074Z,18.40
2022-09-12T10:01:04.983Z,18.60
2022-09-12T10:04:24.542Z,18.80
2022-09-12T10:07:32.970Z,18.80
2022-09-12T10:10:53.873Z,18.92
2022-09-12T10:14:04.541Z,18.90
2022-09-12T10:17:33.804Z,19.12
2022-09-12T10:20:46.434Z,19.40
2022-09-12T10:24:04.816Z,19.40
2022-09-12T10:27:21.534Z,19.30
2022-09-12T10:30:30.355Z,19.30
2022-09-12T10:33:52.856Z,19.40
2022-09-12T10:37:07.547Z,19.80
2022-09-12T10:40:31.364Z,20.00
2022-09-12T10:43:59.115Z,19.80
2022-09-12T10:47:27.000Z,19.54
2022-09-12T10:50:57.924Z,19.22
2022-09-12T10:54:11.369Z,18.92
2022-09-12T10:57:46.212Z,18.70
2022-09-12T11:01:07.194Z,18.50
2022-09-12T11:04:37.652Z,18.44
2022-09-12T11:07:49.857Z,18.40
2022-09-12T11:11:07.061Z,18.32
2022-09-12T11:14:32.498Z,18.20
2022-09-12T11:17:53.199Z,18.10
2022-09-12T11:21:24.753Z,18.06
2022-09-12T11:25:08.785Z,18.10
2022-09-12T11:28:36.972Z,18.10
2022-09-12T11:32:26.578Z,18.20
2022-09-12T11:35:35.102Z,18.24
2022-09-12T11:38:59.073Z,18.40
2022-09-12T11:42:14.065Z,18.64
2022-09-12T11:45:28.140Z,18.80
2022-09-12T11:48:47.434Z,18.90
2022-09-12T11:52:04.463Z,19.00
2022-09-12T11:55:20.964Z,19.00
2022-09-12T11:58:31.599Z,19.00
2022-09-12T12:01:49.081Z,19.10
2022-09-12T12:05:21.461Z,19.50
2022-09-12T12:08:33.684Z,19.60
2022-09-12T12:11:49.784Z,19.96
2022-09-12T12:15:00.315Z,20.62
2022-09-12T12:18:20.192Z,21.10
2022-09-12T12:21:42.862Z,21.58
2022-09-12T12:25:30.050Z,21.80
2022-09-12T12:29:03.100Z,21.80
2022-09-12T12:32:33.865Z,22.20
2022-09-12T12:36:03.696Z,22.30
2022-09-12T12:40:04.475Z,22.00
2022-09-12T12:43:35.021Z,21.70
2022-09-12T12:47:02.935Z,21.40
2022-09-12T12:50:26.358Z,21.48
2022-09-12T12:53:35.645Z,21.86
2022-09-12T12:56:48.470Z,22.24
2022-09-12T13:00:02.202Z,22.68
2022-09-12T13:03:31.012Z,23.06
2022-09-12T13:06:42.687Z,23.40
2022-09-12T13:09:55.057Z,23.58
2022-09-12T13:13:08.863Z,23.80
2022-09-12T13:16:38.221Z,23.60
2022-09-12T13:19:49.827Z,23.62
2022-09-12T13:22:58.272Z,23.80
2022-09-12T13:26:11.643Z,23.82
2022-09-12T13:29:23.674Z,24.00
2022-09-12T13:32:31.663Z,23.80
2022-09-12T13:35:55.142Z,23.70
2022-09-12T13:39:19.026Z,23.80
2022-09-12T13:42:45.884Z,24.00
2022-09-12T13:45:55.531Z,23.90
2022-09-12T13:49:14.875Z,23.42
2022-09-12T13:52:27.050Z,22.96
2022-09-12T13:55:41.980Z,22.40
2022-09-12T13:59:00.332Z,22.10
2022-09-12T14:02:23.776Z,22.30
2022-09-12T14:05:32.832Z,22.40
2022-09-12T14:08:44.237Z,22.50
2022-09-12T14:11:52.822Z,22.56
2022-09-12T14:15:01.129Z,22.60
2022-09-12T14:18:23.495Z,22.50
2022-09-12T14:21:41.740Z,22.58
2022-09-12T14:24:51.769Z,22.70
2022-09-12T14:28:01.503Z,22.88
2022-09-12T14:31:24.077Z,22.72
2022-09-12T14:34:32.555Z,22.46
2022-09-12T14:37:40.636Z,22.48
2022-09-12T14:40:52.640Z,22.60
2022-09-12T14:44:06.083Z,22.70
2022-09-12T14:47:28.096Z,22.50
2022-09-12T14:50:39.923Z,22.40
2022-09-12T14:53:52.479Z,22.30
2022-09-12T14:57:03.458Z,22.10
2022-09-12T15:00:21.629Z,21.80
2022-09-12T15:03:38.034Z,21.50
2022-09-12T15:06:46.352Z,21.28
2022-09-12T15:09:54.154Z,20.96
2022-09-12T15:13:21.014Z,20.68
2022-09-12T15:16:28.917Z,20.40
2022-09-12T15:19:37.047Z,20.20
2022-09-12T15:22:45.245Z,20.00
2022-09-12T15:25:53.961Z,19.90
2022-09-12T15:29:01.752Z,19.80
2022-09-12T15:32:23.857Z,19.70
2022-09-12T15:35:36.563Z,19.60
2022-09-12T15:38:44.950Z,19.60
2022-09-12T15:41:52.967Z,19.50
2022-09-12T15:45:02.808Z,19.50
2022-09-12T15:48:11.403Z,19.40
2022-09-12T15:51:22.557Z,19.30
2022-09-12T15:54:30.519Z,19.30
2022-09-12T15:57:38.500Z,19.22
2022-09-12T16:00:46.532Z,19.20
2022-09-12T16:03:54.413Z,19.10
2022-09-12T16:07:02.204Z,19.00
2022-09-12T16:10:15.593Z,19.00
2022-09-12T16:13:23.588Z,18.90
2022-09-12T16:16:31.655Z,18.80
2022-09-12T16:19:41.301Z,18.70
2022-09-12T16:22:50.184Z,18.60
2022-09-12T16:26:07.039Z,18.60
2022-09-12T16:29:16.728Z,18.50
2022-09-12T16:32:24.994Z,18.40
2022-09-12T16:35:34.709Z,18.30
2022-09-12T16:38:51.464Z,18.20
2022-09-12T16:41:59.565Z,18.16
2022-09-12T16:45:09.925Z,18.10
2022-09-12T16:48:18.254Z,18.00
2022-09-12T16:51:29.012Z,17.90
2022-09-12T16:54:37.362Z,17.72
2022-09-12T16:57:46.184Z,17.64
2022-09-12T17:01:03.189Z,17.52
2022-09-12T17:04:13.081Z,17.48
2022-09-12T17:07:21.512Z,17.40
2022-09-12T17:10:30.829Z,17.30
2022-09-12T17:14:03.106Z,17.22
2022-09-12T17:17:08.904Z,17.20
2022-09-12T17:20:17.740Z,17.10
2022-09-12T17:23:25.593Z,17.10
2022-09-12T17:26:33.321Z,17.00
2022-09-12T17:29:42.080Z,16.96
2022-09-12T17:32:52.472Z,16.90
2022-09-12T17:36:03.559Z,16.80
2022-09-12T17:39:11.872Z,16.80
2022-09-12T17:42:20.204Z,16.70
2022-09-12T17:45:28.654Z,16.60
2022-09-12T17:48:37.123Z,16.60
2022-09-12T17:51:46.043Z,16.50
2022-09-12T17:54:53.722Z,16.50
2022-09-12T17:58:02.942Z,16.48
2022-09-12T18:01:33.126Z,16.40
2022-09-12T18:04:41.965Z,16.32
2022-09-12T18:07:50.115Z,16.30
2022-09-12T18:11:06.945Z,16.22
2022-09-12T18:14:15.233Z,16.20
2022-09-12T18:17:23.396Z,16.14
2022-09-12T18:20:31.351Z,16.10
2022-09-12T18:23:39.575Z,16.10
2022-09-12T18:26:48.011Z,16.00
2022-09-12T18:30:19.527Z,15.98
2022-09-12T18:33:24.415Z,15.90
2022-09-12T18:36:33.809Z,15.80
2022-09-12T18:39:42.266Z,15.70
2022-09-12T18:42:54.956Z,15.70
2022-09-12T18:46:08.233Z,15.60
2022-09-12T18:49:16.218Z,15.60
2022-09-12T18:52:24.510Z,15.50
2022-09-12T18:55:33.735Z,15.42
2022-09-12T18:58:43.929Z,15.40
2022-09-12T19:01:53.410Z,15.30
2022-09-12T19:05:01.504Z,15.20
2022-09-12T19:08:09.754Z,15.20
2022-09-12T19:11:17.933Z,15.10
2022-09-12T19:14:27.624Z,15.02
2022-09-12T19:17:35.847Z,15.00
2022-09-12T19:20:43.701Z,14.90
2022-09-12T19:23:52.554Z,14.86
2022-09-12T19:27:00.850Z,14.80
2022-09-12T19:30:12.196Z,14.70
2022-09-12T19:33:20.417Z,14.60
2022-09-12T19:36:44.310Z,14.50
2022-09-12T19:39:53.496Z,14.40
2022-09-12T19:43:01.384Z,14.40
2022-09-12T19:46:10.031Z,14.30
2022-09-12T19:49:18.048Z,14.30
2022-09-12T19:52:26.319Z,14.20
2022-09-12T19:55:35.602Z,14.20
2022-09-12T19:58:47.330Z,14.10
2022-09-12T20:01:57.068Z,14.10
2022-09-12T20:05:05.987Z,14.00
2022-09-12T20:08:14.084Z,14.00
2022-09-12T20:11:24.374Z,13.90
2022-09-12T20:14:32.342Z,13.90
2022-09-12T20:17:41.151Z,13.80
2022-09-12T20:20:49.180Z,13.70
2022-09-12T20:24:00.388Z,13.60
2022-09-12T20:27:08.993Z,13.60
2022-09-12T20:30:17.921Z,13.60
2022-09-12T20:33:25.655Z,13.60
2022-09-12T20:36:33.804Z,13.60
2022-09-12T20:39:41.878Z,13.60
2022-09-12T20:42:50.049Z,13.60
2022-09-12T20:45:58.362Z,13.50
2022-09-12T20:49:09.056Z,13.50
2022-09-12T20:52:16.846Z,13.40
2022-09-12T20:55:26.820Z,13.36
2022-09-12T20:58:35.221Z,13.20
2022-09-12T21:01:44.247Z,13.10
2022-09-12T21:04:52.494Z,13.00
2022-09-12T21:08:02.845Z,12.90
2022-09-12T21:11:11.541Z,12.90
2022-09-12T21:14:19.961Z,12.80
2022-09-12T21:17:27.774Z,12.80
2022-09-12T21:20:36.702Z,12.74
2022-09-12T21:23:45.334Z,12.70
2022-09-12T21:26:53.313Z,12.70
2022-09-12T21:30:03.488Z,12.60
2022-09-12T21:33:11.624Z,12.50
2022-09-12T21:36:19.504Z,12.48
2022-09-12T21:39:28.307Z,12.40
2022-09-12T21:42:37.739Z,12.40
2022-09-12T21:45:46.362Z,12.34
2022-09-12T21:48:54.066Z,12.32
2022-09-12T21:52:02.264Z,12.30
2022-09-12T21:55:13.040Z,12.30
2022-09-12T21:58:21.130Z,12.30
2022-09-12T22:01:29.015Z,12.20
2022-09-12T22:04:36.962Z,12.18
2022-09-12T22:07:45.930Z,12.10
2022-09-12T22:10:53.892Z,12.00
2022-09-12T22:14:01.839Z,12.00
2022-09-12T22:17:10.246Z,12.00
2022-09-12T22:20:18.191Z,12.00
2022-09-12T22:23:43.983Z,11.96
2022-09-12T22:26:52.232Z,11.90
2022-09-12T22:30:00.169Z,11.80
2022-09-12T22:33:08.005Z,11.80
2022-09-12T22:36:16.169Z,11.70
2022-09-12T22:39:24.527Z,11.70
2022-09-12T22:42:32.376Z,11.76
2022-09-12T22:45:43.706Z,11.70
2022-09-12T22:48:51.662Z,11.70
2022-09-12T22:51:59.545Z,11.60
2022-09-12T22:55:08.400Z,11.60
2022-09-12T22:58:16.485Z,11.60
2022-09-12T23:01:24.610Z,11.60
2022-09-12T23:04:33.009Z,11.56
2022-09-12T23:07:41.077Z,11.50
2022-09-12T23:10:49.103Z,11.48
2022-09-12T23:13:57.066Z,11.44
2022-09-12T23:17:05.235Z,11.40
2022-09-12T23:20:14.224Z,11.40
2022-09-12T23:23:22.036Z,11.36
2022-09-12T23:26:31.608Z,11.30
2022-09-12T23:29:39.411Z,11.30
2022-09-12T23:32:47.396Z,11.30
2022-09-12T23:35:59.103Z,11.30
2022-09-12T23:39:07.514Z,11.20
2022-09-12T23:42:15.346Z,11.10
2022-09-12T23:45:23.252Z,11.00
2022-09-12T23:48:31.907Z,11.00
2022-09-12T23:51:40.182Z,11.00
2022-09-12T23:54:47.863Z,11.00
2022-09-12T23:57:58.136Z,11.00
